sensor_id;sensor_type;location;lat;lon;timestamp;P1;durP1;ratioP1;P2;durP2;ratioP2
40074;SDS011;26529;51.530;11.754;2022-07-03T00:01:38;1.27;;;0.73;;
40074;SDS011;26529;51.530;11.754;2022-07-03T00:04:03;1.92;;;0.82;;
40074;SDS011;26529;51.530;11.754;2022-07-03T00:06:30;1.63;;;0.85;;
40074;SDS011;26529;51.530;11.754;2022-07-03T00:08:57;0.95;;;0.60;;
40074;SDS011;26529;51.530;11.754;2022-07-03T00:11:23;1.65;;;0.50;;
40074;SDS011;26529;51.530;11.754;2022-07-03T00:13:50;1.60;;;0.90;;
40074;SDS011;26529;51.530;11.754;2022-07-03T00:16:15;0.95;;;0.70;;
40074;SDS011;26529;51.530;11.754;2022-07-03T00:18:42;1.00;;;0.57;;
40074;SDS011;26529;51.530;11.754;2022-07-03T00:21:08;1.00;;;0.90;;
40074;SDS011;26529;51.530;11.754;2022-07-03T00:23:52;1.08;;;0.55;;
40074;SDS011;26529;51.530;11.754;2022-07-03T00:26:22;2.42;;;0.60;;
40074;SDS011;26529;51.530;11.754;2022-07-03T00:28:51;1.20;;;0.80;;
40074;SDS011;26529;51.530;11.754;2022-07-03T00:31:17;0.70;;;0.63;;
40074;SDS011;26529;51.530;11.754;2022-07-03T00:33:43;1.55;;;0.80;;
40074;SDS011;26529;51.530;11.754;2022-07-03T00:36:10;2.13;;;1.00;;
40074;SDS011;26529;51.530;11.754;2022-07-03T00:38:36;0.80;;;0.68;;
40074;SDS011;26529;51.530;11.754;2022-07-03T00:41:02;2.95;;;0.98;;
40074;SDS011;26529;51.530;11.754;2022-07-03T00:43:27;1.98;;;0.73;;
40074;SDS011;26529;51.530;11.754;2022-07-03T00:45:53;1.48;;;0.90;;
40074;SDS011;26529;51.530;11.754;2022-07-03T00:48:19;1.65;;;0.65;;
40074;SDS011;26529;51.530;11.754;2022-07-03T00:50:47;1.38;;;0.90;;
40074;SDS011;26529;51.530;11.754;2022-07-03T00:53:14;1.95;;;1.10;;
40074;SDS011;26529;51.530;11.754;2022-07-03T00:55:43;0.88;;;0.70;;
40074;SDS011;26529;51.530;11.754;2022-07-03T00:58:12;0.98;;;0.60;;
40074;SDS011;26529;51.530;11.754;2022-07-03T01:00:41;1.60;;;0.90;;
40074;SDS011;26529;51.530;11.754;2022-07-03T01:03:07;0.70;;;0.50;;
40074;SDS011;26529;51.530;11.754;2022-07-03T01:05:45;2.63;;;0.80;;
40074;SDS011;26529;51.530;11.754;2022-07-03T01:08:19;1.42;;;0.90;;
40074;SDS011;26529;51.530;11.754;2022-07-03T01:10:51;1.10;;;0.70;;
40074;SDS011;26529;51.530;11.754;2022-07-03T01:18:53;1.50;;;0.63;;
40074;SDS011;26529;51.530;11.754;2022-07-03T01:24:37;1.90;;;0.70;;
40074;SDS011;26529;51.530;11.754;2022-07-03T01:27:54;2.08;;;0.73;;
40074;SDS011;26529;51.530;11.754;2022-07-03T01:30:33;0.90;;;0.63;;
40074;SDS011;26529;51.530;11.754;2022-07-03T01:33:02;0.88;;;0.70;;
40074;SDS011;26529;51.530;11.754;2022-07-03T01:35:33;0.85;;;0.70;;
40074;SDS011;26529;51.530;11.754;2022-07-03T01:38:04;2.85;;;0.65;;
40074;SDS011;26529;51.530;11.754;2022-07-03T01:40:37;0.50;;;0.50;;
40074;SDS011;26529;51.530;11.754;2022-07-03T01:43:06;1.10;;;1.00;;
40074;SDS011;26529;51.530;11.754;2022-07-03T01:45:37;2.65;;;0.93;;
40074;SDS011;26529;51.530;11.754;2022-07-03T01:48:06;1.17;;;0.70;;
40074;SDS011;26529;51.530;11.754;2022-07-03T01:50:33;1.13;;;0.70;;
40074;SDS011;26529;51.530;11.754;2022-07-03T01:53:00;1.70;;;0.80;;
40074;SDS011;26529;51.530;11.754;2022-07-03T01:55:29;1.38;;;0.70;;
40074;SDS011;26529;51.530;11.754;2022-07-03T01:57:56;1.52;;;0.98;;
40074;SDS011;26529;51.530;11.754;2022-07-03T02:00:22;1.27;;;0.70;;
40074;SDS011;26529;51.530;11.754;2022-07-03T02:03:01;1.35;;;0.70;;
40074;SDS011;26529;51.530;11.754;2022-07-03T02:05:33;1.67;;;0.70;;
40074;SDS011;26529;51.530;11.754;2022-07-03T02:08:06;1.05;;;0.85;;
40074;SDS011;26529;51.530;11.754;2022-07-03T02:10:38;1.55;;;0.98;;
40074;SDS011;26529;51.530;11.754;2022-07-03T02:13:16;2.20;;;0.88;;
40074;SDS011;26529;51.530;11.754;2022-07-03T02:15:44;2.78;;;0.90;;
40074;SDS011;26529;51.530;11.754;2022-07-03T02:18:24;0.95;;;0.80;;
40074;SDS011;26529;51.530;11.754;2022-07-03T02:21:14;0.60;;;0.60;;
40074;SDS011;26529;51.530;11.754;2022-07-03T02:23:47;1.58;;;1.00;;
40074;SDS011;26529;51.530;11.754;2022-07-03T02:26:14;1.52;;;1.02;;
40074;SDS011;26529;51.530;11.754;2022-07-03T02:28:56;2.50;;;0.75;;
40074;SDS011;26529;51.530;11.754;2022-07-03T02:31:26;0.98;;;0.82;;
40074;SDS011;26529;51.530;11.754;2022-07-03T02:33:56;1.95;;;0.70;;
40074;SDS011;26529;51.530;11.754;2022-07-03T02:36:24;1.67;;;0.63;;
40074;SDS011;26529;51.530;11.754;2022-07-03T02:38:55;1.52;;;0.82;;
40074;SDS011;26529;51.530;11.754;2022-07-03T02:41:23;1.58;;;0.80;;
40074;SDS011;26529;51.530;11.754;2022-07-03T02:44:03;1.55;;;1.02;;
40074;SDS011;26529;51.530;11.754;2022-07-03T02:52:30;2.50;;;1.60;;
40074;SDS011;26529;51.530;11.754;2022-07-03T02:55:20;1.58;;;1.20;;
40074;SDS011;26529;51.530;11.754;2022-07-03T02:57:57;1.90;;;1.35;;
40074;SDS011;26529;51.530;11.754;2022-07-03T03:00:32;1.73;;;1.33;;
40074;SDS011;26529;51.530;11.754;2022-07-03T03:03:00;2.03;;;1.17;;
40074;SDS011;26529;51.530;11.754;2022-07-03T03:05:28;1.88;;;1.00;;
40074;SDS011;26529;51.530;11.754;2022-07-03T03:10:37;1.33;;;0.90;;
40074;SDS011;26529;51.530;11.754;2022-07-03T03:13:08;2.30;;;1.30;;
40074;SDS011;26529;51.530;11.754;2022-07-03T03:15:35;1.48;;;1.25;;
40074;SDS011;26529;51.530;11.754;2022-07-03T03:18:03;2.10;;;0.98;;
40074;SDS011;26529;51.530;11.754;2022-07-03T03:20:31;2.53;;;1.27;;
40074;SDS011;26529;51.530;11.754;2022-07-03T03:23:12;1.58;;;1.00;;
40074;SDS011;26529;51.530;11.754;2022-07-03T03:25:50;1.23;;;0.90;;
40074;SDS011;26529;51.530;11.754;2022-07-03T03:28:18;1.20;;;0.88;;
40074;SDS011;26529;51.530;11.754;2022-07-03T03:30:44;1.77;;;0.80;;
40074;SDS011;26529;51.530;11.754;2022-07-03T03:33:09;2.75;;;1.25;;
40074;SDS011;26529;51.530;11.754;2022-07-03T03:35:36;1.20;;;1.00;;
40074;SDS011;26529;51.530;11.754;2022-07-03T03:38:03;1.10;;;0.98;;
40074;SDS011;26529;51.530;11.754;2022-07-03T03:40:29;1.10;;;0.90;;
40074;SDS011;26529;51.530;11.754;2022-07-03T03:42:56;1.13;;;0.93;;
40074;SDS011;26529;51.530;11.754;2022-07-03T03:45:22;2.20;;;1.05;;
40074;SDS011;26529;51.530;11.754;2022-07-03T03:47:48;1.60;;;1.20;;
40074;SDS011;26529;51.530;11.754;2022-07-03T03:50:13;1.88;;;0.90;;
40074;SDS011;26529;51.530;11.754;2022-07-03T03:52:39;0.82;;;0.70;;
40074;SDS011;26529;51.530;11.754;2022-07-03T03:55:05;1.45;;;0.90;;
40074;SDS011;26529;51.530;11.754;2022-07-03T03:57:31;0.95;;;0.95;;
40074;SDS011;26529;51.530;11.754;2022-07-03T03:59:56;1.35;;;1.05;;
40074;SDS011;26529;51.530;11.754;2022-07-03T04:02:22;1.45;;;0.77;;
40074;SDS011;26529;51.530;11.754;2022-07-03T04:04:47;1.40;;;1.10;;
40074;SDS011;26529;51.530;11.754;2022-07-03T04:07:13;1.25;;;0.82;;
40074;SDS011;26529;51.530;11.754;2022-07-03T04:09:38;1.38;;;0.80;;
40074;SDS011;26529;51.530;11.754;2022-07-03T04:12:04;1.70;;;0.98;;
40074;SDS011;26529;51.530;11.754;2022-07-03T04:14:30;2.30;;;1.00;;
40074;SDS011;26529;51.530;11.754;2022-07-03T04:16:55;0.80;;;0.80;;
40074;SDS011;26529;51.530;11.754;2022-07-03T04:19:21;1.55;;;1.27;;
40074;SDS011;26529;51.530;11.754;2022-07-03T04:21:47;1.30;;;0.93;;
40074;SDS011;26529;51.530;11.754;2022-07-03T04:24:14;1.15;;;0.90;;
40074;SDS011;26529;51.530;11.754;2022-07-03T04:26:40;1.60;;;0.85;;
40074;SDS011;26529;51.530;11.754;2022-07-03T04:29:05;0.93;;;0.80;;
40074;SDS011;26529;51.530;11.754;2022-07-03T04:31:31;2.53;;;1.17;;
40074;SDS011;26529;51.530;11.754;2022-07-03T04:33:56;1.52;;;0.93;;
40074;SDS011;26529;51.530;11.754;2022-07-03T04:36:22;1.00;;;0.90;;
40074;SDS011;26529;51.530;11.754;2022-07-03T04:38:47;1.35;;;0.82;;
40074;SDS011;26529;51.530;11.754;2022-07-03T04:41:13;1.42;;;1.10;;
40074;SDS011;26529;51.530;11.754;2022-07-03T04:43:38;2.00;;;1.05;;
40074;SDS011;26529;51.530;11.754;2022-07-03T04:46:03;1.60;;;1.02;;
40074;SDS011;26529;51.530;11.754;2022-07-03T04:48:29;2.92;;;1.10;;
40074;SDS011;26529;51.530;11.754;2022-07-03T04:50:55;0.85;;;0.85;;
40074;SDS011;26529;51.530;11.754;2022-07-03T04:53:21;1.85;;;0.90;;
40074;SDS011;26529;51.530;11.754;2022-07-03T04:55:47;1.83;;;1.20;;
40074;SDS011;26529;51.530;11.754;2022-07-03T04:58:12;5.72;;;1.05;;
40074;SDS011;26529;51.530;11.754;2022-07-03T05:00:38;1.13;;;1.00;;
40074;SDS011;26529;51.530;11.754;2022-07-03T05:03:06;1.17;;;1.08;;
40074;SDS011;26529;51.530;11.754;2022-07-03T05:05:31;1.55;;;1.00;;
40074;SDS011;26529;51.530;11.754;2022-07-03T05:07:57;0.80;;;0.70;;
40074;SDS011;26529;51.530;11.754;2022-07-03T05:10:22;3.13;;;1.10;;
40074;SDS011;26529;51.530;11.754;2022-07-03T05:12:48;0.70;;;0.70;;
40074;SDS011;26529;51.530;11.754;2022-07-03T05:15:13;3.40;;;1.52;;
40074;SDS011;26529;51.530;11.754;2022-07-03T05:17:39;1.60;;;0.93;;
40074;SDS011;26529;51.530;11.754;2022-07-03T05:20:04;2.28;;;1.10;;
40074;SDS011;26529;51.530;11.754;2022-07-03T05:22:49;1.10;;;1.00;;
40074;SDS011;26529;51.530;11.754;2022-07-03T05:25:18;1.42;;;0.98;;
40074;SDS011;26529;51.530;11.754;2022-07-03T05:27:44;0.65;;;0.65;;
40074;SDS011;26529;51.530;11.754;2022-07-03T05:30:10;1.58;;;1.25;;
40074;SDS011;26529;51.530;11.754;2022-07-03T05:32:36;1.08;;;0.90;;
40074;SDS011;26529;51.530;11.754;2022-07-03T05:35:02;1.13;;;1.02;;
40074;SDS011;26529;51.530;11.754;2022-07-03T05:37:28;1.80;;;0.82;;
40074;SDS011;26529;51.530;11.754;2022-07-03T05:39:53;2.95;;;1.20;;
40074;SDS011;26529;51.530;11.754;2022-07-03T05:42:19;1.75;;;1.20;;
40074;SDS011;26529;51.530;11.754;2022-07-03T05:44:44;1.63;;;1.15;;
40074;SDS011;26529;51.530;11.754;2022-07-03T05:47:10;0.98;;;0.77;;
40074;SDS011;26529;51.530;11.754;2022-07-03T05:49:35;1.17;;;0.82;;
40074;SDS011;26529;51.530;11.754;2022-07-03T05:52:01;2.25;;;0.95;;
40074;SDS011;26529;51.530;11.754;2022-07-03T05:54:26;1.25;;;0.90;;
40074;SDS011;26529;51.530;11.754;2022-07-03T05:56:52;0.70;;;0.70;;
40074;SDS011;26529;51.530;11.754;2022-07-03T05:59:17;0.77;;;0.75;;
40074;SDS011;26529;51.530;11.754;2022-07-03T06:01:43;1.25;;;0.80;;
40074;SDS011;26529;51.530;11.754;2022-07-03T06:04:08;2.28;;;1.05;;
40074;SDS011;26529;51.530;11.754;2022-07-03T06:06:34;1.52;;;0.75;;
40074;SDS011;26529;51.530;11.754;2022-07-03T06:08:59;2.28;;;0.95;;
40074;SDS011;26529;51.530;11.754;2022-07-03T06:11:25;1.77;;;0.85;;
40074;SDS011;26529;51.530;11.754;2022-07-03T06:13:50;1.00;;;0.90;;
40074;SDS011;26529;51.530;11.754;2022-07-03T06:16:16;1.40;;;1.00;;
40074;SDS011;26529;51.530;11.754;2022-07-03T06:18:41;1.05;;;0.98;;
40074;SDS011;26529;51.530;11.754;2022-07-03T06:21:07;0.90;;;0.80;;
40074;SDS011;26529;51.530;11.754;2022-07-03T06:23:32;0.70;;;0.60;;
40074;SDS011;26529;51.530;11.754;2022-07-03T06:25:58;1.70;;;0.80;;
40074;SDS011;26529;51.530;11.754;2022-07-03T06:28:24;0.98;;;0.88;;
40074;SDS011;26529;51.530;11.754;2022-07-03T06:30:50;0.98;;;0.90;;
40074;SDS011;26529;51.530;11.754;2022-07-03T06:33:15;1.38;;;1.05;;
40074;SDS011;26529;51.530;11.754;2022-07-03T06:35:41;0.73;;;0.63;;
40074;SDS011;26529;51.530;11.754;2022-07-03T06:38:06;1.52;;;0.73;;
40074;SDS011;26529;51.530;11.754;2022-07-03T06:40:32;1.38;;;0.80;;
40074;SDS011;26529;51.530;11.754;2022-07-03T06:42:57;1.17;;;0.85;;
40074;SDS011;26529;51.530;11.754;2022-07-03T06:45:23;0.90;;;0.80;;
40074;SDS011;26529;51.530;11.754;2022-07-03T06:47:48;1.95;;;1.10;;
40074;SDS011;26529;51.530;11.754;2022-07-03T06:50:14;1.27;;;0.82;;
40074;SDS011;26529;51.530;11.754;2022-07-03T06:52:39;0.70;;;0.70;;
40074;SDS011;26529;51.530;11.754;2022-07-03T06:55:05;1.20;;;1.10;;
40074;SDS011;26529;51.530;11.754;2022-07-03T06:57:31;1.30;;;0.77;;
40074;SDS011;26529;51.530;11.754;2022-07-03T06:59:56;0.98;;;0.75;;
40074;SDS011;26529;51.530;11.754;2022-07-03T07:02:22;1.42;;;0.65;;
40074;SDS011;26529;51.530;11.754;2022-07-03T07:04:48;0.77;;;0.77;;
40074;SDS011;26529;51.530;11.754;2022-07-03T07:07:13;1.58;;;0.70;;
40074;SDS011;26529;51.530;11.754;2022-07-03T07:09:39;1.23;;;0.80;;
40074;SDS011;26529;51.530;11.754;2022-07-03T07:12:05;1.45;;;0.93;;
40074;SDS011;26529;51.530;11.754;2022-07-03T07:14:30;0.82;;;0.73;;
40074;SDS011;26529;51.530;11.754;2022-07-03T07:16:56;1.13;;;0.88;;
40074;SDS011;26529;51.530;11.754;2022-07-03T07:19:21;0.77;;;0.70;;
40074;SDS011;26529;51.530;11.754;2022-07-03T07:21:47;1.05;;;0.80;;
40074;SDS011;26529;51.530;11.754;2022-07-03T07:24:12;1.23;;;0.93;;
40074;SDS011;26529;51.530;11.754;2022-07-03T07:26:38;1.17;;;0.80;;
40074;SDS011;26529;51.530;11.754;2022-07-03T07:29:03;0.95;;;0.85;;
40074;SDS011;26529;51.530;11.754;2022-07-03T07:31:29;1.40;;;0.73;;
40074;SDS011;26529;51.530;11.754;2022-07-03T07:33:54;1.05;;;0.52;;
40074;SDS011;26529;51.530;11.754;2022-07-03T07:36:20;1.75;;;0.80;;
40074;SDS011;26529;51.530;11.754;2022-07-03T07:38:45;0.70;;;0.60;;
40074;SDS011;26529;51.530;11.754;2022-07-03T07:41:10;0.60;;;0.60;;
40074;SDS011;26529;51.530;11.754;2022-07-03T07:43:36;1.02;;;0.70;;
40074;SDS011;26529;51.530;11.754;2022-07-03T07:46:01;0.98;;;0.80;;
40074;SDS011;26529;51.530;11.754;2022-07-03T07:48:27;1.17;;;1.08;;
40074;SDS011;26529;51.530;11.754;2022-07-03T07:50:53;0.63;;;0.57;;
40074;SDS011;26529;51.530;11.754;2022-07-03T07:53:18;0.95;;;0.80;;
40074;SDS011;26529;51.530;11.754;2022-07-03T07:55:44;1.25;;;0.80;;
40074;SDS011;26529;51.530;11.754;2022-07-03T07:58:09;0.82;;;0.70;;
40074;SDS011;26529;51.530;11.754;2022-07-03T08:00:35;4.43;;;0.70;;
40074;SDS011;26529;51.530;11.754;2022-07-03T08:03:00;0.93;;;0.80;;
40074;SDS011;26529;51.530;11.754;2022-07-03T08:05:45;2.45;;;0.60;;
40074;SDS011;26529;51.530;11.754;2022-07-03T08:08:11;0.50;;;0.50;;
40074;SDS011;26529;51.530;11.754;2022-07-03T08:10:47;0.75;;;0.63;;
40074;SDS011;26529;51.530;11.754;2022-07-03T08:13:14;0.50;;;0.50;;
40074;SDS011;26529;51.530;11.754;2022-07-03T08:15:42;0.98;;;0.80;;
40074;SDS011;26529;51.530;11.754;2022-07-03T08:18:08;1.80;;;0.70;;
40074;SDS011;26529;51.530;11.754;2022-07-03T08:20:33;0.77;;;0.70;;
40074;SDS011;26529;51.530;11.754;2022-07-03T08:23:00;0.98;;;0.60;;
40074;SDS011;26529;51.530;11.754;2022-07-03T08:25:25;1.30;;;1.02;;
40074;SDS011;26529;51.530;11.754;2022-07-03T08:27:52;0.80;;;0.52;;
40074;SDS011;26529;51.530;11.754;2022-07-03T08:30:18;1.50;;;0.75;;
40074;SDS011;26529;51.530;11.754;2022-07-03T08:32:45;1.58;;;0.80;;
40074;SDS011;26529;51.530;11.754;2022-07-03T08:35:11;0.65;;;0.43;;
40074;SDS011;26529;51.530;11.754;2022-07-03T08:37:37;0.80;;;0.60;;
40074;SDS011;26529;51.530;11.754;2022-07-03T08:40:06;0.40;;;0.40;;
40074;SDS011;26529;51.530;11.754;2022-07-03T08:42:32;0.77;;;0.60;;
40074;SDS011;26529;51.530;11.754;2022-07-03T08:45:02;0.55;;;0.50;;
40074;SDS011;26529;51.530;11.754;2022-07-03T08:47:27;0.40;;;0.40;;
40074;SDS011;26529;51.530;11.754;2022-07-03T08:49:56;0.85;;;0.60;;
40074;SDS011;26529;51.530;11.754;2022-07-03T08:52:24;1.08;;;0.70;;
40074;SDS011;26529;51.530;11.754;2022-07-03T08:54:51;0.90;;;0.75;;
40074;SDS011;26529;51.530;11.754;2022-07-03T08:57:16;0.98;;;0.82;;
40074;SDS011;26529;51.530;11.754;2022-07-03T08:59:43;1.17;;;0.55;;
40074;SDS011;26529;51.530;11.754;2022-07-03T09:02:15;0.47;;;0.47;;
40074;SDS011;26529;51.530;11.754;2022-07-03T09:04:41;0.95;;;0.60;;
40074;SDS011;26529;51.530;11.754;2022-07-03T09:07:07;1.10;;;0.55;;
40074;SDS011;26529;51.530;11.754;2022-07-03T09:09:33;0.73;;;0.65;;
40074;SDS011;26529;51.530;11.754;2022-07-03T09:11:59;1.25;;;0.77;;
40074;SDS011;26529;51.530;11.754;2022-07-03T09:14:25;1.67;;;0.80;;
40074;SDS011;26529;51.530;11.754;2022-07-03T09:16:50;0.88;;;0.68;;
40074;SDS011;26529;51.530;11.754;2022-07-03T09:19:24;0.88;;;0.50;;
40074;SDS011;26529;51.530;11.754;2022-07-03T09:22:13;0.80;;;0.60;;
40074;SDS011;26529;51.530;11.754;2022-07-03T09:24:43;0.98;;;0.70;;
40074;SDS011;26529;51.530;11.754;2022-07-03T09:27:10;0.50;;;0.50;;
40074;SDS011;26529;51.530;11.754;2022-07-03T09:29:56;0.60;;;0.50;;
40074;SDS011;26529;51.530;11.754;2022-07-03T09:32:24;1.02;;;0.40;;
40074;SDS011;26529;51.530;11.754;2022-07-03T09:35:09;0.60;;;0.60;;
40074;SDS011;26529;51.530;11.754;2022-07-03T09:37:47;1.25;;;0.40;;
40074;SDS011;26529;51.530;11.754;2022-07-03T09:40:13;0.55;;;0.55;;
40074;SDS011;26529;51.530;11.754;2022-07-03T09:42:39;0.60;;;0.40;;
40074;SDS011;26529;51.530;11.754;2022-07-03T09:45:04;0.50;;;0.50;;
40074;SDS011;26529;51.530;11.754;2022-07-03T09:47:30;0.55;;;0.50;;
40074;SDS011;26529;51.530;11.754;2022-07-03T09:50:00;0.82;;;0.55;;
40074;SDS011;26529;51.530;11.754;2022-07-03T09:52:38;0.50;;;0.40;;
40074;SDS011;26529;51.530;11.754;2022-07-03T09:57:42;2.10;;;0.60;;
40074;SDS011;26529;51.530;11.754;2022-07-03T10:05:41;0.38;;;0.38;;
40074;SDS011;26529;51.530;11.754;2022-07-03T10:08:11;0.70;;;0.40;;
40074;SDS011;26529;51.530;11.754;2022-07-03T10:10:42;0.32;;;0.32;;
40074;SDS011;26529;51.530;11.754;2022-07-03T10:13:09;0.82;;;0.40;;
40074;SDS011;26529;51.530;11.754;2022-07-03T10:15:35;0.93;;;0.82;;
40074;SDS011;26529;51.530;11.754;2022-07-03T10:18:04;0.47;;;0.20;;
40074;SDS011;26529;51.530;11.754;2022-07-03T10:23:01;1.48;;;0.47;;
40074;SDS011;26529;51.530;11.754;2022-07-03T10:25:27;0.98;;;0.60;;
40074;SDS011;26529;51.530;11.754;2022-07-03T10:27:54;0.35;;;0.20;;
40074;SDS011;26529;51.530;11.754;2022-07-03T10:30:21;1.48;;;0.40;;
40074;SDS011;26529;51.530;11.754;2022-07-03T10:32:50;0.55;;;0.40;;
40074;SDS011;26529;51.530;11.754;2022-07-03T10:35:24;0.65;;;0.30;;
40074;SDS011;26529;51.530;11.754;2022-07-03T10:40:42;0.40;;;0.40;;
40074;SDS011;26529;51.530;11.754;2022-07-03T10:43:37;0.50;;;0.27;;
40074;SDS011;26529;51.530;11.754;2022-07-03T10:46:24;0.73;;;0.45;;
40074;SDS011;26529;51.530;11.754;2022-07-03T10:51:18;0.30;;;0.30;;
40074;SDS011;26529;51.530;11.754;2022-07-03T10:53:44;0.30;;;0.10;;
40074;SDS011;26529;51.530;11.754;2022-07-03T10:56:10;0.30;;;0.28;;
40074;SDS011;26529;51.530;11.754;2022-07-03T10:58:57;0.85;;;0.30;;
40074;SDS011;26529;51.530;11.754;2022-07-03T11:01:28;0.70;;;0.20;;
40074;SDS011;26529;51.530;11.754;2022-07-03T11:03:54;0.22;;;0.20;;
40074;SDS011;26529;51.530;11.754;2022-07-03T11:09:13;0.75;;;0.30;;
40074;SDS011;26529;51.530;11.754;2022-07-03T11:14:21;0.57;;;0.30;;
40074;SDS011;26529;51.530;11.754;2022-07-03T11:17:15;1.02;;;0.20;;
40074;SDS011;26529;51.530;11.754;2022-07-03T11:19:42;1.17;;;0.10;;
40074;SDS011;26529;51.530;11.754;2022-07-03T11:22:09;0.63;;;0.30;;
40074;SDS011;26529;51.530;11.754;2022-07-03T11:24:43;0.63;;;0.30;;
40074;SDS011;26529;51.530;11.754;2022-07-03T11:27:20;0.70;;;0.30;;
40074;SDS011;26529;51.530;11.754;2022-07-03T11:29:50;0.22;;;0.20;;
40074;SDS011;26529;51.530;11.754;2022-07-03T11:35:55;0.43;;;0.30;;
40074;SDS011;26529;51.530;11.754;2022-07-03T11:38:15;1.75;;;0.30;;
40074;SDS011;26529;51.530;11.754;2022-07-03T11:40:49;0.35;;;0.20;;
40074;SDS011;26529;51.530;11.754;2022-07-03T11:43:16;0.30;;;0.30;;
40074;SDS011;26529;51.530;11.754;2022-07-03T11:45:41;0.57;;;0.30;;
40074;SDS011;26529;51.530;11.754;2022-07-03T11:48:17;0.20;;;0.20;;
40074;SDS011;26529;51.530;11.754;2022-07-03T11:50:45;0.30;;;0.20;;
40074;SDS011;26529;51.530;11.754;2022-07-03T11:53:26;1.70;;;0.30;;
40074;SDS011;26529;51.530;11.754;2022-07-03T11:56:00;0.52;;;0.35;;
40074;SDS011;26529;51.530;11.754;2022-07-03T12:01:27;0.75;;;0.20;;
40074;SDS011;26529;51.530;11.754;2022-07-03T12:04:15;0.35;;;0.32;;
40074;SDS011;26529;51.530;11.754;2022-07-03T12:06:44;0.17;;;0.17;;
40074;SDS011;26529;51.530;11.754;2022-07-03T12:09:12;0.50;;;0.20;;
40074;SDS011;26529;51.530;11.754;2022-07-03T12:11:39;0.50;;;0.20;;
40074;SDS011;26529;51.530;11.754;2022-07-03T12:14:05;0.25;;;0.20;;
40074;SDS011;26529;51.530;11.754;2022-07-03T12:16:32;0.45;;;0.45;;
40074;SDS011;26529;51.530;11.754;2022-07-03T12:19:03;0.93;;;0.38;;
40074;SDS011;26529;51.530;11.754;2022-07-03T12:21:37;0.32;;;0.20;;
40074;SDS011;26529;51.530;11.754;2022-07-03T12:24:11;0.60;;;0.22;;
40074;SDS011;26529;51.530;11.754;2022-07-03T12:26:38;0.82;;;0.28;;
40074;SDS011;26529;51.530;11.754;2022-07-03T12:29:05;0.38;;;0.30;;
40074;SDS011;26529;51.530;11.754;2022-07-03T12:31:33;0.20;;;0.10;;
40074;SDS011;26529;51.530;11.754;2022-07-03T12:33:59;0.57;;;0.25;;
40074;SDS011;26529;51.530;11.754;2022-07-03T12:36:25;3.05;;;0.20;;
40074;SDS011;26529;51.530;11.754;2022-07-03T12:38:52;0.30;;;0.17;;
40074;SDS011;26529;51.530;11.754;2022-07-03T12:45:25;0.35;;;0.10;;
40074;SDS011;26529;51.530;11.754;2022-07-03T12:47:59;0.20;;;0.10;;
40074;SDS011;26529;51.530;11.754;2022-07-03T12:50:47;0.30;;;0.20;;
40074;SDS011;26529;51.530;11.754;2022-07-03T12:53:30;2.13;;;0.40;;
40074;SDS011;26529;51.530;11.754;2022-07-03T12:56:04;0.60;;;0.20;;
40074;SDS011;26529;51.530;11.754;2022-07-03T12:58:33;1.10;;;0.20;;
40074;SDS011;26529;51.530;11.754;2022-07-03T13:04:04;0.68;;;0.68;;
40074;SDS011;26529;51.530;11.754;2022-07-03T13:06:30;0.30;;;0.20;;
40074;SDS011;26529;51.530;11.754;2022-07-03T13:08:56;0.75;;;0.30;;
40074;SDS011;26529;51.530;11.754;2022-07-03T13:11:39;0.60;;;0.10;;
40074;SDS011;26529;51.530;11.754;2022-07-03T13:14:10;0.20;;;0.10;;
40074;SDS011;26529;51.530;11.754;2022-07-03T13:16:39;0.20;;;0.20;;
40074;SDS011;26529;51.530;11.754;2022-07-03T13:19:13;0.43;;;0.20;;
40074;SDS011;26529;51.530;11.754;2022-07-03T13:21:40;1.75;;;0.50;;
40074;SDS011;26529;51.530;11.754;2022-07-03T13:24:06;0.57;;;0.30;;
40074;SDS011;26529;51.530;11.754;2022-07-03T13:26:32;0.22;;;0.10;;
40074;SDS011;26529;51.530;11.754;2022-07-03T13:28:58;0.73;;;0.20;;
40074;SDS011;26529;51.530;11.754;2022-07-03T13:31:24;0.47;;;0.30;;
40074;SDS011;26529;51.530;11.754;2022-07-03T13:33:50;0.38;;;0.20;;
40074;SDS011;26529;51.530;11.754;2022-07-03T13:36:15;0.30;;;0.20;;
40074;SDS011;26529;51.530;11.754;2022-07-03T13:38:42;0.20;;;0.20;;
40074;SDS011;26529;51.530;11.754;2022-07-03T13:41:08;0.38;;;0.22;;
40074;SDS011;26529;51.530;11.754;2022-07-03T13:43:34;0.80;;;0.30;;
40074;SDS011;26529;51.530;11.754;2022-07-03T13:45:59;0.75;;;0.10;;
40074;SDS011;26529;51.530;11.754;2022-07-03T13:48:25;0.32;;;0.20;;
40074;SDS011;26529;51.530;11.754;2022-07-03T13:50:50;0.28;;;0.15;;
40074;SDS011;26529;51.530;11.754;2022-07-03T13:53:16;0.25;;;0.25;;
40074;SDS011;26529;51.530;11.754;2022-07-03T13:55:41;0.20;;;0.20;;
40074;SDS011;26529;51.530;11.754;2022-07-03T13:58:07;0.43;;;0.22;;
40074;SDS011;26529;51.530;11.754;2022-07-03T14:00:33;0.20;;;0.17;;
40074;SDS011;26529;51.530;11.754;2022-07-03T14:02:59;0.63;;;0.40;;
40074;SDS011;26529;51.530;11.754;2022-07-03T14:05:25;0.28;;;0.28;;
40074;SDS011;26529;51.530;11.754;2022-07-03T14:07:51;0.30;;;0.20;;
40074;SDS011;26529;51.530;11.754;2022-07-03T14:10:16;0.50;;;0.30;;
40074;SDS011;26529;51.530;11.754;2022-07-03T14:12:42;0.60;;;0.30;;
40074;SDS011;26529;51.530;11.754;2022-07-03T14:15:07;0.70;;;0.32;;
40074;SDS011;26529;51.530;11.754;2022-07-03T14:17:33;0.32;;;0.20;;
40074;SDS011;26529;51.530;11.754;2022-07-03T14:19:59;0.40;;;0.30;;
40074;SDS011;26529;51.530;11.754;2022-07-03T14:22:24;1.75;;;0.30;;
40074;SDS011;26529;51.530;11.754;2022-07-03T14:24:50;0.52;;;0.20;;
40074;SDS011;26529;51.530;11.754;2022-07-03T14:27:15;0.50;;;0.20;;
40074;SDS011;26529;51.530;11.754;2022-07-03T14:29:59;0.40;;;0.30;;
40074;SDS011;26529;51.530;11.754;2022-07-03T14:32:43;0.30;;;0.20;;
40074;SDS011;26529;51.530;11.754;2022-07-03T14:35:08;1.38;;;0.10;;
40074;SDS011;26529;51.530;11.754;2022-07-03T14:37:34;0.30;;;0.20;;
40074;SDS011;26529;51.530;11.754;2022-07-03T14:39:59;0.63;;;0.35;;
40074;SDS011;26529;51.530;11.754;2022-07-03T14:42:25;0.47;;;0.20;;
40074;SDS011;26529;51.530;11.754;2022-07-03T14:44:50;0.30;;;0.20;;
40074;SDS011;26529;51.530;11.754;2022-07-03T14:47:16;0.30;;;0.25;;
40074;SDS011;26529;51.530;11.754;2022-07-03T14:49:42;0.32;;;0.10;;
40074;SDS011;26529;51.530;11.754;2022-07-03T14:52:08;0.22;;;0.20;;
40074;SDS011;26529;51.530;11.754;2022-07-03T14:54:34;0.43;;;0.15;;
40074;SDS011;26529;51.530;11.754;2022-07-03T14:57:00;0.40;;;0.30;;
40074;SDS011;26529;51.530;11.754;2022-07-03T15:02:06;0.45;;;0.22;;
40074;SDS011;26529;51.530;11.754;2022-07-03T15:04:53;0.30;;;0.30;;
40074;SDS011;26529;51.530;11.754;2022-07-03T15:07:27;1.95;;;0.20;;
40074;SDS011;26529;51.530;11.754;2022-07-03T15:10:05;0.32;;;0.30;;
40074;SDS011;26529;51.530;11.754;2022-07-03T15:12:33;2.00;;;0.20;;
40074;SDS011;26529;51.530;11.754;2022-07-03T15:15:01;0.20;;;0.20;;
40074;SDS011;26529;51.530;11.754;2022-07-03T15:17:27;0.38;;;0.30;;
40074;SDS011;26529;51.530;11.754;2022-07-03T15:19:54;0.20;;;0.20;;
40074;SDS011;26529;51.530;11.754;2022-07-03T15:22:21;1.75;;;0.20;;
40074;SDS011;26529;51.530;11.754;2022-07-03T15:24:50;0.20;;;0.20;;
40074;SDS011;26529;51.530;11.754;2022-07-03T15:27:22;0.35;;;0.20;;
40074;SDS011;26529;51.530;11.754;2022-07-03T15:29:49;0.60;;;0.30;;
40074;SDS011;26529;51.530;11.754;2022-07-03T15:32:16;0.38;;;0.22;;
40074;SDS011;26529;51.530;11.754;2022-07-03T15:34:42;0.70;;;0.45;;
40074;SDS011;26529;51.530;11.754;2022-07-03T15:40:09;0.75;;;0.20;;